sensor_id;sensor_type;location;lat;lon;timestamp;pressure;altitude;pressure_sealevel;temperature;humidity
71621;BME280;59471;42.254;23.102;2023-04-24T00:00:54;95723.34;;;10.14;70.78
71621;BME280;59471;42.254;23.102;2023-04-24T00:03:24;95725.25;;;10.20;70.31
71621;BME280;59471;42.254;23.102;2023-04-24T00:05:51;95721.16;;;10.17;70.44
71621;BME280;59471;42.254;23.102;2023-04-24T00:08:17;95710.94;;;10.08;71.82
71621;BME280;59471;42.254;23.102;2023-04-24T00:10:43;95702.19;;;10.01;71.71
71621;BME280;59471;42.254;23.102;2023-04-24T00:13:09;95694.84;;;10.19;71.02
71621;BME280;59471;42.254;23.102;2023-04-24T00:15:34;95702.94;;;10.09;71.42
71621;BME280;59471;42.254;23.102;2023-04-24T00:18:00;95706.50;;;9.93;72.21
71621;BME280;59471;42.254;23.102;2023-04-24T00:20:27;95703.03;;;10.16;71.24
71621;BME280;59471;42.254;23.102;2023-04-24T00:22:57;95702.91;;;10.32;70.81
71621;BME280;59471;42.254;23.102;2023-04-24T00:25:23;95720.34;;;10.17;70.83
71621;BME280;59471;42.254;23.102;2023-04-24T00:27:48;95712.69;;;10.15;71.30
71621;BME280;59471;42.254;23.102;2023-04-24T00:30:14;95708.09;;;10.17;71.90
71621;BME280;59471;42.254;23.102;2023-04-24T00:32:39;95700.94;;;10.34;70.34
71621;BME280;59471;42.254;23.102;2023-04-24T00:35:06;95689.28;;;10.37;70.27
71621;BME280;59471;42.254;23.102;2023-04-24T00:37:32;95693.59;;;10.30;71.58
71621;BME280;59471;42.254;23.102;2023-04-24T00:39:57;95690.81;;;10.31;71.76
71621;BME280;59471;42.254;23.102;2023-04-24T00:42:23;95689.19;;;10.30;71.77
71621;BME280;59471;42.254;23.102;2023-04-24T00:44:50;95682.09;;;10.16;73.03
71621;BME280;59471;42.254;23.102;2023-04-24T00:47:16;95691.19;;;10.28;71.88
71621;BME280;59471;42.254;23.102;2023-04-24T00:49:42;95699.31;;;10.10;72.38
71621;BME280;59471;42.254;23.102;2023-04-24T00:52:07;95687.44;;;9.85;73.68
71621;BME280;59471;42.254;23.102;2023-04-24T00:54:35;95676.78;;;9.86;73.86
71621;BME280;59471;42.254;23.102;2023-04-24T00:57:04;95672.50;;;9.93;74.13
71621;BME280;59471;42.254;23.102;2023-04-24T00:59:30;95675.47;;;10.28;73.83
71621;BME280;59471;42.254;23.102;2023-04-24T01:01:57;95676.91;;;10.46;73.39
71621;BME280;59471;42.254;23.102;2023-04-24T01:04:24;95671.38;;;10.26;74.10
71621;BME280;59471;42.254;23.102;2023-04-24T01:06:51;95673.13;;;10.33;74.25
71621;BME280;59471;42.254;23.102;2023-04-24T01:09:18;95676.50;;;10.19;74.67
71621;BME280;59471;42.254;23.102;2023-04-24T01:11:44;95684.97;;;10.21;74.02
71621;BME280;59471;42.254;23.102;2023-04-24T01:14:09;95682.19;;;10.23;75.07
71621;BME280;59471;42.254;23.102;2023-04-24T01:16:35;95675.31;;;10.07;75.64
71621;BME280;59471;42.254;23.102;2023-04-24T01:19:03;95679.00;;;9.97;76.43
71621;BME280;59471;42.254;23.102;2023-04-24T01:21:34;95682.63;;;9.96;76.13
71621;BME280;59471;42.254;23.102;2023-04-24T01:24:02;95681.97;;;9.94;76.31
71621;BME280;59471;42.254;23.102;2023-04-24T01:26:28;95687.59;;;10.06;76.84
71621;BME280;59471;42.254;23.102;2023-04-24T01:28:54;95674.41;;;10.14;75.82
71621;BME280;59471;42.254;23.102;2023-04-24T01:31:19;95677.34;;;9.82;78.08
71621;BME280;59471;42.254;23.102;2023-04-24T01:33:45;95677.94;;;10.07;77.78
71621;BME280;59471;42.254;23.102;2023-04-24T01:36:11;95675.88;;;9.79;78.20
71621;BME280;59471;42.254;23.102;2023-04-24T01:38:37;95681.13;;;9.79;79.04
71621;BME280;59471;42.254;23.102;2023-04-24T01:41:03;95681.16;;;9.33;79.73
71621;BME280;59471;42.254;23.102;2023-04-24T01:43:29;95689.31;;;9.30;80.48
71621;BME280;59471;42.254;23.102;2023-04-24T01:45:54;95690.88;;;9.39;80.06
71621;BME280;59471;42.254;23.102;2023-04-24T01:48:20;95685.91;;;9.52;78.74
71621;BME280;59471;42.254;23.102;2023-04-24T01:50:45;95684.50;;;9.65;78.61
71621;BME280;59471;42.254;23.102;2023-04-24T01:53:11;95685.66;;;9.62;79.21
71621;BME280;59471;42.254;23.102;2023-04-24T01:55:37;95682.56;;;9.82;77.79
71621;BME280;59471;42.254;23.102;2023-04-24T01:58:03;95684.63;;;9.71;78.51
71621;BME280;59471;42.254;23.102;2023-04-24T02:00:28;95678.44;;;9.87;78.19
71621;BME280;59471;42.254;23.102;2023-04-24T02:02:54;95680.16;;;9.95;77.81
71621;BME280;59471;42.254;23.102;2023-04-24T02:05:19;95672.56;;;9.85;78.52
71621;BME280;59471;42.254;23.102;2023-04-24T02:07:45;95669.88;;;9.93;78.14
71621;BME280;59471;42.254;23.102;2023-04-24T02:10:10;95667.38;;;9.77;80.51
71621;BME280;59471;42.254;23.102;2023-04-24T02:12:36;95662.16;;;9.77;80.67
71621;BME280;59471;42.254;23.102;2023-04-24T02:15:02;95660.69;;;9.60;81.47
71621;BME280;59471;42.254;23.102;2023-04-24T02:17:28;95656.50;;;9.50;81.50
71621;BME280;59471;42.254;23.102;2023-04-24T02:19:53;95649.88;;;9.63;81.67
71621;BME280;59471;42.254;23.102;2023-04-24T02:22:19;95642.56;;;9.35;82.47
71621;BME280;59471;42.254;23.102;2023-04-24T02:24:44;95643.47;;;9.42;81.41
71621;BME280;59471;42.254;23.102;2023-04-24T02:27:10;95642.44;;;9.51;81.50
71621;BME280;59471;42.254;23.102;2023-04-24T02:29:36;95641.00;;;9.26;82.01
71621;BME280;59471;42.254;23.102;2023-04-24T02:32:02;95634.88;;;9.11;82.84
71621;BME280;59471;42.254;23.102;2023-04-24T02:34:27;95636.72;;;9.33;80.98
71621;BME280;59471;42.254;23.102;2023-04-24T02:36:53;95624.78;;;9.54;80.89
71621;BME280;59471;42.254;23.102;2023-04-24T02:39:21;95630.97;;;9.15;82.83
71621;BME280;59471;42.254;23.102;2023-04-24T02:41:47;95636.53;;;9.12;83.27
71621;BME280;59471;42.254;23.102;2023-04-24T02:44:12;95630.16;;;9.14;82.99
71621;BME280;59471;42.254;23.102;2023-04-24T02:46:38;95625.03;;;9.21;83.02
71621;BME280;59471;42.254;23.102;2023-04-24T02:49:03;95623.88;;;9.46;82.09
71621;BME280;59471;42.254;23.102;2023-04-24T02:51:29;95625.25;;;9.34;81.91
71621;BME280;59471;42.254;23.102;2023-04-24T02:53:55;95630.41;;;8.96;83.91
71621;BME280;59471;42.254;23.102;2023-04-24T02:56:21;95628.69;;;9.12;83.53
71621;BME280;59471;42.254;23.102;2023-04-24T02:58:46;95630.25;;;9.21;83.24
71621;BME280;59471;42.254;23.102;2023-04-24T03:01:12;95634.19;;;9.17;83.03
71621;BME280;59471;42.254;23.102;2023-04-24T03:03:38;95633.59;;;9.07;83.34
71621;BME280;59471;42.254;23.102;2023-04-24T03:06:04;95631.91;;;8.91;83.73
71621;BME280;59471;42.254;23.102;2023-04-24T03:08:31;95630.69;;;9.01;83.88
71621;BME280;59471;42.254;23.102;2023-04-24T03:10:57;95622.00;;;8.86;83.87
71621;BME280;59471;42.254;23.102;2023-04-24T03:13:23;95626.44;;;9.09;81.90
71621;BME280;59471;42.254;23.102;2023-04-24T03:15:49;95629.31;;;9.14;83.21
71621;BME280;59471;42.254;23.102;2023-04-24T03:18:14;95618.47;;;8.71;84.27
71621;BME280;59471;42.254;23.102;2023-04-24T03:20:40;95626.53;;;8.92;84.29
71621;BME280;59471;42.254;23.102;2023-04-24T03:23:05;95625.34;;;8.95;84.09
71621;BME280;59471;42.254;23.102;2023-04-24T03:25:31;95623.50;;;9.03;83.55
71621;BME280;59471;42.254;23.102;2023-04-24T03:27:56;95620.25;;;9.01;83.54
71621;BME280;59471;42.254;23.102;2023-04-24T03:30:22;95623.56;;;8.95;84.54
71621;BME280;59471;42.254;23.102;2023-04-24T03:32:48;95626.56;;;8.84;84.76
71621;BME280;59471;42.254;23.102;2023-04-24T03:35:13;95616.44;;;8.89;84.59
71621;BME280;59471;42.254;23.102;2023-04-24T03:37:39;95619.63;;;8.68;85.57
71621;BME280;59471;42.254;23.102;2023-04-24T03:40:05;95620.25;;;8.23;87.87
71621;BME280;59471;42.254;23.102;2023-04-24T03:42:31;95618.91;;;8.51;87.52
71621;BME280;59471;42.254;23.102;2023-04-24T03:44:56;95627.63;;;8.67;85.72
71621;BME280;59471;42.254;23.102;2023-04-24T03:47:22;95614.69;;;8.26;88.23
71621;BME280;59471;42.254;23.102;2023-04-24T03:49:47;95615.75;;;8.64;86.32
71621;BME280;59471;42.254;23.102;2023-04-24T03:52:13;95614.03;;;8.40;87.50
71621;BME280;59471;42.254;23.102;2023-04-24T03:54:38;95624.72;;;8.62;86.94
71621;BME280;59471;42.254;23.102;2023-04-24T03:57:04;95621.78;;;8.56;87.02
71621;BME280;59471;42.254;23.102;2023-04-24T03:59:30;95624.75;;;8.53;87.55
71621;BME280;59471;42.254;23.102;2023-04-24T04:01:55;95619.72;;;8.52;87.26
71621;BME280;59471;42.254;23.102;2023-04-24T04:04:21;95618.91;;;8.51;87.58
71621;BME280;59471;42.254;23.102;2023-04-24T04:06:46;95618.81;;;8.68;86.16
71621;BME280;59471;42.254;23.102;2023-04-24T04:09:12;95619.19;;;8.88;85.54
71621;BME280;59471;42.254;23.102;2023-04-24T04:11:38;95615.75;;;8.95;85.45
71621;BME280;59471;42.254;23.102;2023-04-24T04:14:03;95623.56;;;8.95;85.36
71621;BME280;59471;42.254;23.102;2023-04-24T04:16:29;95620.59;;;8.98;85.17
71621;BME280;59471;42.254;23.102;2023-04-24T04:18:55;95629.47;;;8.89;85.66
71621;BME280;59471;42.254;23.102;2023-04-24T04:21:21;95626.19;;;9.18;83.67
71621;BME280;59471;42.254;23.102;2023-04-24T04:23:46;95633.50;;;9.23;84.78
71621;BME280;59471;42.254;23.102;2023-04-24T04:26:12;95635.72;;;9.34;84.24
71621;BME280;59471;42.254;23.102;2023-04-24T04:28:38;95633.44;;;9.31;84.01
71621;BME280;59471;42.254;23.102;2023-04-24T04:31:05;95636.59;;;9.49;82.32
71621;BME280;59471;42.254;23.102;2023-04-24T04:33:30;95636.50;;;9.58;82.20
71621;BME280;59471;42.254;23.102;2023-04-24T04:35:56;95641.59;;;9.74;82.37
71621;BME280;59471;42.254;23.102;2023-04-24T04:38:23;95641.16;;;9.47;82.95
71621;BME280;59471;42.254;23.102;2023-04-24T04:40:49;95646.63;;;9.61;83.60
71621;BME280;59471;42.254;23.102;2023-04-24T04:43:15;95649.47;;;9.28;84.01
71621;BME280;59471;42.254;23.102;2023-04-24T04:45:41;95659.00;;;9.21;85.53
71621;BME280;59471;42.254;23.102;2023-04-24T04:48:09;95645.94;;;9.44;84.14
71621;BME280;59471;42.254;23.102;2023-04-24T04:50:37;95643.22;;;9.37;84.15
71621;BME280;59471;42.254;23.102;2023-04-24T04:53:03;95633.31;;;9.47;83.58
71621;BME280;59471;42.254;23.102;2023-04-24T04:55:28;95640.00;;;9.50;84.06
71621;BME280;59471;42.254;23.102;2023-04-24T04:57:54;95639.78;;;9.60;83.93
71621;BME280;59471;42.254;23.102;2023-04-24T05:00:21;95637.22;;;9.51;83.90
71621;BME280;59471;42.254;23.102;2023-04-24T05:02:49;95640.41;;;9.39;84.65
71621;BME280;59471;42.254;23.102;2023-04-24T05:05:14;95634.09;;;9.56;83.69
71621;BME280;59471;42.254;23.102;2023-04-24T05:07:42;95640.47;;;9.54;83.95
71621;BME280;59471;42.254;23.102;2023-04-24T05:10:08;95642.69;;;9.65;84.61
71621;BME280;59471;42.254;23.102;2023-04-24T05:12:33;95643.38;;;9.96;81.77
71621;BME280;59471;42.254;23.102;2023-04-24T05:14:59;95647.75;;;9.81;82.36
71621;BME280;59471;42.254;23.102;2023-04-24T05:17:25;95645.91;;;10.05;80.90
71621;BME280;59471;42.254;23.102;2023-04-24T05:19:51;95643.06;;;10.29;79.18
71621;BME280;59471;42.254;23.102;2023-04-24T05:22:17;95644.31;;;10.18;79.49
71621;BME280;59471;42.254;23.102;2023-04-24T05:24:45;95644.19;;;10.12;80.40
71621;BME280;59471;42.254;23.102;2023-04-24T05:27:10;95641.09;;;10.31;79.53
71621;BME280;59471;42.254;23.102;2023-04-24T05:29:36;95650.72;;;10.16;80.42
71621;BME280;59471;42.254;23.102;2023-04-24T05:32:01;95632.28;;;10.24;79.81
71621;BME280;59471;42.254;23.102;2023-04-24T05:34:27;95646.69;;;10.28;78.92
71621;BME280;59471;42.254;23.102;2023-04-24T05:36:52;95647.50;;;10.43;79.00
71621;BME280;59471;42.254;23.102;2023-04-24T05:39:18;95640.91;;;10.62;79.02
71621;BME280;59471;42.254;23.102;2023-04-24T05:41:44;95646.59;;;10.66;78.45
71621;BME280;59471;42.254;23.102;2023-04-24T05:44:10;95641.72;;;10.63;78.00
71621;BME280;59471;42.254;23.102;2023-04-24T05:46:35;95642.97;;;10.67;77.02
71621;BME280;59471;42.254;23.102;2023-04-24T05:49:01;95645.50;;;10.46;79.06
71621;BME280;59471;42.254;23.102;2023-04-24T05:51:27;95644.06;;;10.58;78.20
71621;BME280;59471;42.254;23.102;2023-04-24T05:53:53;95639.31;;;10.98;77.06
71621;BME280;59471;42.254;23.102;2023-04-24T05:56:19;95648.63;;;10.85;77.48
71621;BME280;59471;42.254;23.102;2023-04-24T05:58:46;95641.19;;;11.04;76.38
71621;BME280;59471;42.254;23.102;2023-04-24T06:01:12;95640.97;;;11.05;76.31
71621;BME280;59471;42.254;23.102;2023-04-24T06:03:40;95639.69;;;11.37;76.29
71621;BME280;59471;42.254;23.102;2023-04-24T06:06:07;95638.69;;;11.60;75.83
71621;BME280;59471;42.254;23.102;2023-04-24T06:08:33;95634.34;;;11.67;74.97
71621;BME280;59471;42.254;23.102;2023-04-24T06:10:59;95647.34;;;11.82;73.31
71621;BME280;59471;42.254;23.102;2023-04-24T06:13:25;95649.72;;;11.92;72.99
71621;BME280;59471;42.254;23.102;2023-04-24T06:15:51;95648.69;;;11.93;73.69
71621;BME280;59471;42.254;23.102;2023-04-24T06:18:18;95643.81;;;11.90;74.07
71621;BME280;59471;42.254;23.102;2023-04-24T06:20:45;95637.91;;;12.09;73.07
71621;BME280;59471;42.254;23.102;2023-04-24T06:23:11;95636.03;;;12.31;73.96
71621;BME280;59471;42.254;23.102;2023-04-24T06:25:37;95633.84;;;12.41;73.59
71621;BME280;59471;42.254;23.102;2023-04-24T06:28:03;95632.44;;;12.39;72.93
71621;BME280;59471;42.254;23.102;2023-04-24T06:30:30;95634.28;;;12.45;72.45
71621;BME280;59471;42.254;23.102;2023-04-24T06:32:55;95633.22;;;12.33;73.09
71621;BME280;59471;42.254;23.102;2023-04-24T06:35:21;95626.41;;;12.45;72.88
71621;BME280;59471;42.254;23.102;2023-04-24T06:37:46;95622.47;;;12.62;72.60
71621;BME280;59471;42.254;23.102;2023-04-24T06:40:12;95625.19;;;12.89;71.61
71621;BME280;59471;42.254;23.102;2023-04-24T06:42:38;95617.16;;;13.04;70.82
71621;BME280;59471;42.254;23.102;2023-04-24T06:45:04;95622.84;;;13.20;70.60
71621;BME280;59471;42.254;23.102;2023-04-24T06:47:30;95627.50;;;13.18;70.41
71621;BME280;59471;42.254;23.102;2023-04-24T06:49:56;95619.06;;;13.36;70.22
71621;BME280;59471;42.254;23.102;2023-04-24T06:52:22;95623.53;;;13.36;69.36
71621;BME280;59471;42.254;23.102;2023-04-24T06:54:47;95613.84;;;13.43;69.64
71621;BME280;59471;42.254;23.102;2023-04-24T06:57:13;95618.09;;;13.71;67.99
71621;BME280;59471;42.254;23.102;2023-04-24T06:59:38;95617.50;;;13.95;68.47
71621;BME280;59471;42.254;23.102;2023-04-24T07:02:04;95604.50;;;14.13;67.84
71621;BME280;59471;42.254;23.102;2023-04-24T07:04:30;95602.06;;;14.12;66.49
71621;BME280;59471;42.254;23.102;2023-04-24T07:06:56;95601.44;;;14.30;67.28
71621;BME280;59471;42.254;23.102;2023-04-24T07:09:26;95610.09;;;14.44;66.25
71621;BME280;59471;42.254;23.102;2023-04-24T07:11:52;95600.81;;;14.41;65.79
71621;BME280;59471;42.254;23.102;2023-04-24T07:14:19;95604.63;;;14.58;65.13
71621;BME280;59471;42.254;23.102;2023-04-24T07:16:45;95600.09;;;14.79;64.59
71621;BME280;59471;42.254;23.102;2023-04-24T07:19:12;95594.53;;;14.94;63.68
71621;BME280;59471;42.254;23.102;2023-04-24T07:21:38;95591.09;;;14.93;64.94
71621;BME280;59471;42.254;23.102;2023-04-24T07:24:03;95590.19;;;15.13;64.47
71621;BME280;59471;42.254;23.102;2023-04-24T07:26:30;95581.59;;;15.24;63.66
71621;BME280;59471;42.254;23.102;2023-04-24T07:28:55;95578.53;;;15.27;63.79
71621;BME280;59471;42.254;23.102;2023-04-24T07:31:21;95580.75;;;15.62;62.46
71621;BME280;59471;42.254;23.102;2023-04-24T07:33:47;95569.81;;;15.58;61.04
71621;BME280;59471;42.254;23.102;2023-04-24T07:36:13;95573.03;;;15.67;60.59
71621;BME280;59471;42.254;23.102;2023-04-24T07:38:45;95570.88;;;16.01;60.41
71621;BME280;59471;42.254;23.102;2023-04-24T07:41:12;95573.44;;;16.07;59.30
71621;BME280;59471;42.254;23.102;2023-04-24T07:43:38;95567.66;;;16.17;57.66
71621;BME280;59471;42.254;23.102;2023-04-24T07:46:04;95572.22;;;16.10;56.71
71621;BME280;59471;42.254;23.102;2023-04-24T07:48:30;95552.25;;;16.14;55.95
71621;BME280;59471;42.254;23.102;2023-04-24T07:50:55;95553.22;;;16.38;55.66
71621;BME280;59471;42.254;23.102;2023-04-24T07:53:21;95544.94;;;16.53;55.90
71621;BME280;59471;42.254;23.102;2023-04-24T07:55:46;95552.91;;;16.64;56.26
71621;BME280;59471;42.254;23.102;2023-04-24T07:58:12;95544.06;;;16.59;54.74
71621;BME280;59471;42.254;23.102;2023-04-24T08:00:37;95552.38;;;16.92;56.84
71621;BME280;59471;42.254;23.102;2023-04-24T08:03:03;95550.63;;;16.86;54.46
71621;BME280;59471;42.254;23.102;2023-04-24T08:05:29;95547.13;;;16.74;55.51
71621;BME280;59471;42.254;23.102;2023-04-24T08:07:55;95553.88;;;16.88;54.33
71621;BME280;59471;42.254;23.102;2023-04-24T08:10:22;95550.41;;;16.88;53.68
71621;BME280;59471;42.254;23.102;2023-04-24T08:12:48;95549.81;;;16.86;52.80
71621;BME280;59471;42.254;23.102;2023-04-24T08:15:14;95548.41;;;17.02;54.48
71621;BME280;59471;42.254;23.102;2023-04-24T08:17:39;95545.34;;;16.86;52.69
71621;BME280;59471;42.254;23.102;2023-04-24T08:20:06;95545.28;;;17.05;54.47
71621;BME280;59471;42.254;23.102;2023-04-24T08:22:35;95537.69;;;17.38;53.46
71621;BME280;59471;42.254;23.102;2023-04-24T08:25:01;95533.38;;;17.56;53.53
71621;BME280;59471;42.254;23.102;2023-04-24T08:27:27;95529.88;;;17.44;51.93
71621;BME280;59471;42.254;23.102;2023-04-24T08:29:53;95526.88;;;17.52;51.82
71621;BME280;59471;42.254;23.102;2023-04-24T08:32:19;95519.91;;;17.69;50.74
71621;BME280;59471;42.254;23.102;2023-04-24T08:34:45;95510.31;;;17.68;51.41
71621;BME280;59471;42.254;23.102;2023-04-24T08:37:10;95510.50;;;17.85;51.09
71621;BME280;59471;42.254;23.102;2023-04-24T08:39:37;95503.22;;;18.04;52.23
71621;BME280;59471;42.254;23.102;2023-04-24T08:42:04;95500.19;;;18.12;49.89
71621;BME280;59471;42.254;23.102;2023-04-24T08:44:33;95505.59;;;18.29;49.24
71621;BME280;59471;42.254;23.102;2023-04-24T08:47:01;95501.38;;;18.04;46.83
71621;BME280;59471;42.254;23.102;2023-04-24T08:49:28;95504.91;;;18.22;48.40
71621;BME280;59471;42.254;23.102;2023-04-24T08:51:54;95504.72;;;18.52;47.82
71621;BME280;59471;42.254;23.102;2023-04-24T08:54:20;95498.97;;;18.55;45.68
71621;BME280;59471;42.254;23.102;2023-04-24T08:56:47;95499.47;;;18.69;45.63
71621;BME280;59471;42.254;23.102;2023-04-24T08:59:15;95502.13;;;18.81;44.55
71621;BME280;59471;42.254;23.102;2023-04-24T09:01:41;95494.44;;;18.56;44.61
71621;BME280;59471;42.254;23.102;2023-04-24T09:04:09;95491.69;;;18.91;44.18
71621;BME280;59471;42.254;23.102;2023-04-24T09:06:36;95491.22;;;18.94;43.98
71621;BME280;59471;42.254;23.102;2023-04-24T09:09:02;95487.22;;;19.08;43.10
71621;BME280;59471;42.254;23.102;2023-04-24T09:11:30;95496.91;;;19.31;42.81
71621;BME280;59471;42.254;23.102;2023-04-24T09:13:57;95483.88;;;19.30;42.08
71621;BME280;59471;42.254;23.102;2023-04-24T09:16:24;95482.31;;;19.00;43.28
71621;BME280;59471;42.254;23.102;2023-04-24T09:18:51;95483.31;;;19.28;43.19
71621;BME280;59471;42.254;23.102;2023-04-24T09:21:16;95487.97;;;19.20;43.17
71621;BME280;59471;42.254;23.102;2023-04-24T09:23:42;95490.41;;;19.39;43.79
71621;BME280;59471;42.254;23.102;2023-04-24T09:26:09;95486.34;;;19.19;41.09
71621;BME280;59471;42.254;23.102;2023-04-24T09:28:37;95478.25;;;18.81;41.17
71621;BME280;59471;42.254;23.102;2023-04-24T09:31:12;95481.13;;;19.41;42.69
71621;BME280;59471;42.254;23.102;2023-04-24T09:34:04;95472.03;;;19.54;42.53
71621;BME280;59471;42.254;23.102;2023-04-24T09:36:42;95477.03;;;19.34;42.53
71621;BME280;59471;42.254;23.102;2023-04-24T09:39:13;95462.00;;;19.39;41.65
71621;BME280;59471;42.254;23.102;2023-04-24T09:41:50;95446.63;;;19.25;40.64
71621;BME280;59471;42.254;23.102;2023-04-24T09:44:23;95451.84;;;19.53;41.93
71621;BME280;59471;42.254;23.102;2023-04-24T09:46:53;95448.47;;;19.75;41.14
71621;BME280;59471;42.254;23.102;2023-04-24T09:49:30;95460.94;;;20.35;41.79
71621;BME280;59471;42.254;23.102;2023-04-24T09:52:09;95448.41;;;20.52;39.48
71621;BME280;59471;42.254;23.102;2023-04-24T09:54:36;95455.19;;;20.43;38.38
71621;BME280;59471;42.254;23.102;2023-04-24T09:57:02;95446.66;;;20.41;39.49
71621;BME280;59471;42.254;23.102;2023-04-24T09:59:29;95448.69;;;20.78;40.18
71621;BME280;59471;42.254;23.102;2023-04-24T10:01:55;95442.44;;;20.67;38.25
71621;BME280;59471;42.254;23.102;2023-04-24T10:04:23;95447.75;;;20.45;38.63
71621;BME280;59471;42.254;23.102;2023-04-24T10:06:52;95450.84;;;20.81;38.28
71621;BME280;59471;42.254;23.102;2023-04-24T10:09:26;95448.38;;;20.08;38.35
71621;BME280;59471;42.254;23.102;2023-04-24T10:11:53;95429.13;;;20.45;38.35
71621;BME280;59471;42.254;23.102;2023-04-24T10:14:24;95436.41;;;20.77;38.42
71621;BME280;59471;42.254;23.102;2023-04-24T10:16:53;95428.19;;;21.11;37.94
71621;BME280;59471;42.254;23.102;2023-04-24T10:19:19;95436.63;;;21.02;38.16
71621;BME280;59471;42.254;23.102;2023-04-24T10:21:45;95414.59;;;21.07;38.30
71621;BME280;59471;42.254;23.102;2023-04-24T10:24:17;95421.44;;;21.30;36.97
71621;BME280;59471;42.254;23.102;2023-04-24T10:26:44;95432.59;;;21.27;38.32
71621;BME280;59471;42.254;23.102;2023-04-24T10:29:17;95419.56;;;20.98;37.67
71621;BME280;59471;42.254;23.102;2023-04-24T10:31:44;95405.16;;;21.26;37.50
71621;BME280;59471;42.254;23.102;2023-04-24T10:34:15;95417.81;;;21.41;38.37
71621;BME280;59471;42.254;23.102;2023-04-24T10:36:48;95417.91;;;20.87;38.85
71621;BME280;59471;42.254;23.102;2023-04-24T10:39:16;95419.09;;;20.74;38.61
71621;BME280;59471;42.254;23.102;2023-04-24T10:41:43;95407.34;;;20.97;39.02
71621;BME280;59471;42.254;23.102;2023-04-24T10:44:09;95418.00;;;21.02;40.25
71621;BME280;59471;42.254;23.102;2023-04-24T10:46:37;95412.25;;;20.83;38.04
71621;BME280;59471;42.254;23.102;2023-04-24T10:49:05;95400.91;;;20.93;39.09
71621;BME280;59471;42.254;23.102;2023-04-24T10:54:29;95402.50;;;20.94;40.06
71621;BME280;59471;42.254;23.102;2023-04-24T10:59:44;95398.47;;;21.19;40.17
71621;BME280;59471;42.254;23.102;2023-04-24T11:02:10;95393.88;;;21.46;37.49
71621;BME280;59471;42.254;23.102;2023-04-24T11:04:36;95392.41;;;21.66;37.52
71621;BME280;59471;42.254;23.102;2023-04-24T11:07:04;95389.06;;;20.79;37.49
71621;BME280;59471;42.254;23.102;2023-04-24T11:09:31;95384.56;;;21.44;38.14
71621;BME280;59471;42.254;23.102;2023-04-24T11:12:09;95386.66;;;21.89;37.59
71621;BME280;59471;42.254;23.102;2023-04-24T11:20:11;95374.31;;;21.78;38.29
71621;BME280;59471;42.254;23.102;2023-04-24T11:22:38;95369.66;;;22.06;37.24
71621;BME280;59471;42.254;23.102;2023-04-24T11:25:08;95373.28;;;21.84;36.79
71621;BME280;59471;42.254;23.102;2023-04-24T11:27:44;95370.72;;;21.15;37.80
71621;BME280;59471;42.254;23.102;2023-04-24T11:30:17;95371.72;;;21.03;37.17
71621;BME280;59471;42.254;23.102;2023-04-24T11:32:48;95355.34;;;21.22;37.83
71621;BME280;59471;42.254;23.102;2023-04-24T11:35:23;95349.50;;;21.25;38.97
71621;BME280;59471;42.254;23.102;2023-04-24T11:37:54;95350.41;;;21.03;38.66
71621;BME280;59471;42.254;23.102;2023-04-24T11:40:21;95354.22;;;21.13;37.10
71621;BME280;59471;42.254;23.102;2023-04-24T11:42:52;95340.28;;;21.38;39.05
71621;BME280;59471;42.254;23.102;2023-04-24T11:45:23;95339.94;;;21.34;39.21
71621;BME280;59471;42.254;23.102;2023-04-24T11:47:51;95334.75;;;21.12;38.26
71621;BME280;59471;42.254;23.102;2023-04-24T11:50:18;95327.59;;;21.18;38.16
71621;BME280;59471;42.254;23.102;2023-04-24T11:52:49;95323.06;;;21.13;39.43
71621;BME280;59471;42.254;23.102;2023-04-24T11:57:59;95310.28;;;21.58;38.95
71621;BME280;59471;42.254;23.102;2023-04-24T12:00:30;95309.41;;;22.15;37.43
71621;BME280;59471;42.254;23.102;2023-04-24T12:03:17;95294.47;;;22.04;36.55
71621;BME280;59471;42.254;23.102;2023-04-24T12:05:43;95305.09;;;21.93;37.53
71621;BME280;59471;42.254;23.102;2023-04-24T12:08:09;95297.03;;;21.78;36.76
71621;BME280;59471;42.254;23.102;2023-04-24T12:10:35;95291.25;;;22.07;37.17
71621;BME280;59471;42.254;23.102;2023-04-24T12:13:01;95295.50;;;22.03;37.52
71621;BME280;59471;42.254;23.102;2023-04-24T12:15:27;95279.88;;;22.27;37.02
71621;BME280;59471;42.254;23.102;2023-04-24T12:17:55;95274.81;;;22.40;37.23
71621;BME280;59471;42.254;23.102;2023-04-24T12:20:28;95277.50;;;22.66;36.59
71621;BME280;59471;42.254;23.102;2023-04-24T12:23:00;95270.00;;;22.78;36.87
71621;BME280;59471;42.254;23.102;2023-04-24T12:25:28;95267.34;;;23.04;36.67
71621;BME280;59471;42.254;23.102;2023-04-24T12:28:08;95270.00;;;23.19;35.09
71621;BME280;59471;42.254;23.102;2023-04-24T12:30:45;95255.16;;;23.63;35.43
71621;BME280;59471;42.254;23.102;2023-04-24T12:33:20;95251.81;;;23.16;35.38
71621;BME280;59471;42.254;23.102;2023-04-24T12:35:48;95255.63;;;22.59;34.05
71621;BME280;59471;42.254;23.102;2023-04-24T12:38:22;95245.22;;;22.57;33.68
71621;BME280;59471;42.254;23.102;2023-04-24T12:41:04;95239.31;;;22.86;36.40
71621;BME280;59471;42.254;23.102;2023-04-24T12:43:31;95236.13;;;22.43;35.22
71621;BME280;59471;42.254;23.102;2023-04-24T12:45:57;95242.53;;;22.37;35.05
71621;BME280;59471;42.254;23.102;2023-04-24T12:48:24;95237.91;;;22.07;33.56
71621;BME280;59471;42.254;23.102;2023-04-24T12:50:53;95230.44;;;21.88;34.50
71621;BME280;59471;42.254;23.102;2023-04-24T12:53:19;95223.31;;;22.35;34.79
71621;BME280;59471;42.254;23.102;2023-04-24T12:55:44;95233.72;;;22.62;34.89
71621;BME280;59471;42.254;23.102;2023-04-24T12:58:12;95229.72;;;22.80;34.04
71621;BME280;59471;42.254;23.102;2023-04-24T13:00:38;95225.47;;;22.58;34.03
71621;BME280;59471;42.254;23.102;2023-04-24T13:03:04;95213.94;;;22.12;34.60
71621;BME280;59471;42.254;23.102;2023-04-24T13:05:29;95213.94;;;22.02;35.50